METAR Data

Data at: 2157 UTC 26 Feb 2020

METAR for:CYFC (Fredericton Intl, NB, CN)
Text:CYFC 262100Z AUTO 09006KT 9SM FEW120 SCT150 BKN170 05/M04 A3004 RMK SLP176
Temperature: 5.0°C ( 41°F)
Dewpoint: -4.0°C ( 25°F) [RH = 52%]
Pressure (altimeter):30.04 inches Hg (1017.4 mb) [Sea level pressure: 1017.6 mb]
Winds:from the E (90 degrees) at 7 MPH (6 knots; 3.1 m/s)
Visibility: 9 sm ( 14 km)
Ceiling:17000 feet AGL
Clouds: few clouds at 12000 feet AGL, scattered clouds at 15000 feet AGL, broken clouds at 17000 feet AGL